createdAt,value
2022-09-06T00:02:05.423Z,115.11111
2022-09-06T00:07:06.322Z,116.06704
2022-09-06T00:12:07.286Z,116.54902
2022-09-06T00:17:08.234Z,118.0113
2022-09-06T00:22:09.157Z,118.0113
2022-09-06T00:27:10.188Z,117.52113
2022-09-06T00:32:11.126Z,118.50425
2022-09-06T00:37:12.054Z,119.49858
2022-09-06T00:42:13.045Z,121.01149
2022-09-06T00:52:14.499Z,120.5043
2022-09-06T00:57:15.426Z,119.0
2022-09-06T01:02:16.574Z,118.50425
2022-09-06T01:07:17.602Z,117.52113
2022-09-06T01:12:18.600Z,117.52113
2022-09-06T01:17:19.592Z,117.52113
2022-09-06T01:22:20.521Z,118.50425
2022-09-06T01:27:21.551Z,119.0
2022-09-06T01:32:22.492Z,119.0
2022-09-06T01:37:23.437Z,119.0
2022-09-06T01:42:24.381Z,119.49858
2022-09-06T01:47:25.370Z,119.0
2022-09-06T01:52:26.276Z,119.49858
2022-09-06T01:57:27.246Z,120.0
2022-09-06T02:02:28.205Z,120.5043
2022-09-06T02:07:29.211Z,122.03468
2022-09-06T02:12:30.193Z,121.01149
2022-09-06T02:17:31.240Z,120.5043
2022-09-06T02:22:32.175Z,120.0
2022-09-06T02:27:34.208Z,120.5043
2022-09-06T02:32:35.290Z,120.0
2022-09-06T02:37:36.175Z,119.49858
2022-09-06T02:42:37.222Z,119.49858
2022-09-06T02:47:38.438Z,119.0
2022-09-06T02:52:39.903Z,118.50425
2022-09-06T02:57:41.224Z,119.49858
2022-09-06T03:02:42.200Z,118.0113
2022-09-06T03:07:43.130Z,118.0113
2022-09-06T03:12:44.024Z,118.50425
2022-09-06T03:17:45.075Z,118.50425
2022-09-06T03:22:46.035Z,118.50425
2022-09-06T03:27:46.972Z,117.52113
2022-09-06T03:32:47.950Z,118.0113
2022-09-06T03:37:48.875Z,117.52113
2022-09-06T03:42:49.774Z,117.03371
2022-09-06T03:47:50.692Z,117.52113
2022-09-06T03:52:51.621Z,117.03371
2022-09-06T03:57:53.459Z,117.03371
2022-09-06T04:02:58.604Z,117.03371
2022-09-06T04:08:02.100Z,117.52113
2022-09-06T04:13:03.047Z,117.03371
2022-09-06T04:18:08.558Z,117.52113
2022-09-06T04:23:10.698Z,117.52113
2022-09-06T04:28:11.696Z,118.50425
2022-09-06T04:33:12.579Z,118.0113
2022-09-06T04:38:13.497Z,118.0113
2022-09-06T04:43:14.449Z,117.03371
2022-09-06T04:48:15.342Z,116.54902
2022-09-06T04:53:16.258Z,116.06704
2022-09-06T04:58:17.273Z,115.58774
2022-09-06T05:03:18.174Z,115.11111
2022-09-06T05:08:19.134Z,114.63712
2022-09-06T05:13:20.119Z,114.16575
2022-09-06T05:18:21.037Z,113.69697
2022-09-06T05:23:21.952Z,114.63712
2022-09-06T05:28:23.061Z,114.63712
2022-09-06T05:33:23.976Z,116.06704
2022-09-06T05:38:28.114Z,115.11111
2022-09-06T05:43:30.613Z,116.06704
2022-09-06T05:48:36.699Z,116.54902
2022-09-06T05:53:38.123Z,115.58774
2022-09-06T05:58:40.074Z,114.63712
2022-09-06T06:03:41.213Z,114.16575
2022-09-06T06:08:42.139Z,113.69697
2022-09-06T06:13:43.059Z,113.23077
2022-09-06T06:18:46.702Z,113.23077
2022-09-06T06:23:49.785Z,113.23077
2022-09-06T06:28:50.724Z,112.76712
2022-09-06T06:33:51.653Z,112.76712
2022-09-06T06:38:52.573Z,112.30601
2022-09-06T06:43:53.509Z,111.3913
2022-09-06T06:48:55.034Z,111.3913
2022-09-06T06:53:56.261Z,110.93767
2022-09-06T06:58:57.188Z,109.14745
2022-09-06T07:03:58.119Z,107.82979
2022-09-06T07:08:59.040Z,107.39523
2022-09-06T07:14:00.031Z,110.03774
2022-09-06T07:19:01.323Z,108.70588
2022-09-06T07:24:05.880Z,108.26667
2022-09-06T07:29:07.674Z,108.26667
2022-09-06T07:34:08.649Z,108.26667
2022-09-06T07:39:09.557Z,106.10526
2022-09-06T07:44:10.461Z,109.5914
2022-09-06T07:49:11.386Z,107.39523
2022-09-06T07:54:29.866Z,108.70588
2022-09-06T07:59:31.964Z,107.39523
2022-09-06T08:04:32.946Z,105.67979
2022-09-06T08:09:34.486Z,105.25654
2022-09-06T08:14:35.562Z,106.10526
2022-09-06T08:19:36.536Z,104.41667
2022-09-06T08:24:37.487Z,104.83551
2022-09-06T08:29:38.510Z,104.0
2022-09-06T08:34:39.423Z,103.17313
2022-09-06T08:39:40.975Z,104.83551
2022-09-06T08:44:58.103Z,104.0
2022-09-06T08:49:59.615Z,102.76289
2022-09-06T08:55:00.535Z,103.58549
2022-09-06T09:00:01.520Z,101.54476
2022-09-06T09:05:02.445Z,98.0
2022-09-06T09:10:03.379Z,98.0
2022-09-06T09:15:04.326Z,99.16373
2022-09-06T09:20:05.233Z,99.94937
2022-09-06T09:25:06.294Z,99.16373
2022-09-06T09:35:38.270Z,96.8536
2022-09-06T09:40:39.195Z,96.47525
2022-09-06T09:45:40.401Z,98.0
2022-09-06T09:50:41.594Z,97.61596
2022-09-06T09:55:42.549Z,99.16373
2022-09-06T10:00:43.566Z,100.34518
2022-09-06T10:05:44.607Z,101.54476
2022-09-06T10:10:45.514Z,100.743
2022-09-06T10:15:46.634Z,100.743
2022-09-06T10:20:47.682Z,99.16373
2022-09-06T10:25:49.712Z,99.16373
2022-09-06T10:30:51.068Z,100.743
2022-09-06T10:35:52.165Z,100.743
2022-09-06T10:40:53.114Z,101.54476
2022-09-06T10:45:54.201Z,100.34518
2022-09-06T10:50:55.123Z,98.77387
2022-09-06T10:55:58.724Z,98.77387
2022-09-06T11:06:03.039Z,99.94937
2022-09-06T11:11:04.010Z,101.94872
2022-09-06T11:16:05.120Z,99.55556
2022-09-06T11:21:06.123Z,99.55556
2022-09-06T11:26:13.594Z,99.55556
2022-09-06T11:37:14.204Z,98.38596
2022-09-06T11:42:16.458Z,100.34518
2022-09-06T11:47:17.489Z,100.743
2022-09-06T11:52:20.341Z,99.16373
2022-09-06T11:57:21.327Z,99.16373
2022-09-06T12:02:22.450Z,98.77387
2022-09-06T12:07:23.542Z,98.77387
2022-09-06T12:12:24.511Z,98.38596
2022-09-06T12:17:25.426Z,98.77387
2022-09-06T12:22:26.455Z,98.38596
2022-09-06T12:27:27.519Z,97.23383
2022-09-06T12:32:28.471Z,96.09877
2022-09-06T12:37:29.500Z,97.61596
2022-09-06T12:42:30.443Z,98.0
2022-09-06T12:47:31.549Z,95.72414
2022-09-06T12:52:32.616Z,96.09877
2022-09-06T13:02:34.290Z,95.35135
2022-09-06T13:07:35.871Z,96.8536
2022-09-06T13:12:37.007Z,95.35135
2022-09-06T13:17:38.084Z,93.51456
2022-09-06T13:22:39.129Z,95.35135
2022-09-06T13:27:40.259Z,94.61125
2022-09-06T13:37:42.098Z,95.35135
2022-09-06T13:47:43.580Z,93.87835
2022-09-06T13:58:07.858Z,93.87835
2022-09-06T14:03:08.944Z,93.87835
2022-09-06T14:08:10.582Z,95.72414
2022-09-06T14:13:12.260Z,96.09877
2022-09-06T14:23:14.023Z,98.38596
2022-09-06T14:28:15.094Z,98.0
2022-09-06T14:38:16.613Z,94.98039
2022-09-06T14:43:17.590Z,94.61125
2022-09-06T14:48:18.597Z,94.61125
2022-09-06T14:53:39.301Z,94.2439
2022-09-06T14:58:41.471Z,94.61125
2022-09-06T15:03:42.435Z,95.72414
2022-09-06T15:18:45.054Z,93.15254
2022-09-06T15:23:46.122Z,94.2439
2022-09-06T15:28:47.030Z,94.98039
2022-09-06T15:38:48.736Z,92.79227
2022-09-06T15:53:50.698Z,92.79227
2022-09-06T15:58:51.665Z,92.43373
2022-09-06T16:08:53.136Z,93.51456
2022-09-06T16:23:55.065Z,92.79227
2022-09-06T16:28:56.045Z,93.51456
2022-09-06T16:33:57.263Z,94.2439
2022-09-06T16:38:59.122Z,93.87835
2022-09-06T16:49:00.539Z,94.98039
2022-09-06T16:54:01.691Z,94.2439
2022-09-06T17:04:08.188Z,96.8536
2022-09-06T17:09:09.205Z,96.09877
2022-09-06T17:14:10.212Z,95.72414
2022-09-06T17:19:11.396Z,94.98039
2022-09-06T17:24:12.485Z,94.61125
2022-09-06T17:44:14.946Z,94.98039
2022-09-06T17:49:15.924Z,95.35135
2022-09-06T17:54:17.315Z,94.98039
2022-09-06T17:59:18.231Z,95.35135
2022-09-06T18:04:19.181Z,95.72414
2022-09-06T18:09:20.137Z,95.72414
2022-09-06T18:14:21.147Z,95.35135
2022-09-06T18:19:22.168Z,94.98039
2022-09-06T18:29:38.902Z,96.47525
2022-09-06T18:34:39.819Z,98.0
2022-09-06T18:39:40.833Z,99.55556
2022-09-06T18:44:41.863Z,99.94937
2022-09-06T18:49:44.333Z,100.34518
2022-09-06T18:54:45.551Z,102.35476
2022-09-06T18:59:46.531Z,101.94872
2022-09-06T19:04:47.689Z,102.76289
2022-09-06T19:09:49.187Z,102.35476
2022-09-06T19:15:05.157Z,101.94872
2022-09-06T19:20:06.137Z,101.54476
2022-09-06T19:25:07.092Z,101.54476
2022-09-06T19:30:08.169Z,101.94872
2022-09-06T19:35:09.340Z,101.54476
2022-09-06T19:40:10.376Z,100.743
2022-09-06T19:45:11.474Z,100.743
2022-09-06T19:50:12.403Z,100.34518
2022-09-06T19:55:13.552Z,100.34518
2022-09-06T20:00:14.617Z,100.743
2022-09-06T20:05:15.648Z,100.743
2022-09-06T20:10:16.762Z,100.743
2022-09-06T20:15:17.846Z,100.34518
2022-09-06T20:20:18.953Z,100.743
2022-09-06T20:25:19.894Z,100.34518
2022-09-06T20:30:21.014Z,100.743
2022-09-06T20:35:22.088Z,100.34518
2022-09-06T20:40:23.123Z,101.14286
2022-09-06T20:45:24.286Z,101.14286
2022-09-06T20:50:25.199Z,101.54476
2022-09-06T20:55:26.110Z,101.94872
2022-09-06T21:00:27.139Z,102.35476
2022-09-06T21:05:28.058Z,102.35476
2022-09-06T21:10:29.189Z,103.58549
2022-09-06T21:15:30.204Z,103.17313
2022-09-06T21:20:31.197Z,103.17313
2022-09-06T21:25:32.995Z,103.17313
2022-09-06T21:30:35.627Z,102.76289
2022-09-06T21:35:36.664Z,103.17313
2022-09-06T21:40:37.686Z,103.58549
2022-09-06T21:45:38.689Z,104.41667
2022-09-06T21:50:39.680Z,104.41667
2022-09-06T21:55:40.684Z,104.41667
2022-09-06T22:06:20.992Z,105.25654
2022-09-06T22:11:22.728Z,105.25654
2022-09-06T22:16:26.448Z,106.10526
2022-09-06T22:21:27.438Z,106.10526
2022-09-06T22:26:32.323Z,107.82979
2022-09-06T22:31:33.645Z,108.70588
2022-09-06T22:36:34.653Z,108.26667
2022-09-06T22:41:35.638Z,108.70588
2022-09-06T22:46:36.697Z,108.26667
2022-09-06T22:51:37.734Z,109.14745
2022-09-06T22:56:38.734Z,109.5914
2022-09-06T23:01:39.744Z,110.48649
2022-09-06T23:06:40.720Z,109.5914
2022-09-06T23:11:41.674Z,109.5914
2022-09-06T23:16:42.782Z,109.5914
2022-09-06T23:21:43.697Z,108.70588
2022-09-06T23:26:44.647Z,108.70588
2022-09-06T23:31:48.671Z,108.70588
2022-09-06T23:36:49.967Z,107.39523
2022-09-06T23:41:51.694Z,108.26667
2022-09-06T23:46:53.118Z,108.26667
2022-09-06T23:51:59.736Z,107.82979
2022-09-06T23:57:00.951Z,106.96296
